Weather at Stockholm-Arlanda Airport

Public forecast

Using degrees Celsius for public forecast. Weather courtesy of forecast.io.

Current aviation weather report (METAR) for Stockholm-Arlanda Airport

Retrieved 2021/10/22 09:20 UTC (37 minutes ago):

ESSA 220920Z 27014KT CAVOK 05/M04 Q0983 NOSIG

Aviation forecast (TAF) for Stockholm-Arlanda Airport

Retrieved 2021/10/22 06:00 UTC (4 hours ago):

TAF ESSA 220530Z 2206/2306 26014KT CAVOK PROB40 2206/2212 26015G25KT BECMG 2219/2222 33006KT PROB40 2302/2306 BKN013